PAPGPAWG

Guest
Details From PAPG - Petersburg James A Johnson
To PAWG - Wrangell
Flight Number -
Tags Routegen Generated
Created
Modified
Stats Distance 30 nm / 55 km
Max Altitude 100 ft / 30 m
Waypoints 5
Social Downloads 1
Likes 0
Share VATSIM

Download

Looking for another format? Having issues loading an existing format? Contact us
Advertisement - Login to hide

Notes

Departing runway 7 PAPG. Arriving runway 12 PAWG.

Route

PAPG +56.83_-132.81 +56.68_-132.65 +56.53_-132.49 PAWG

ID Type Via Altitude Latitude Longitude Leg Dist Tot Dist Heading (true) Name
O PAPG APT - 0 ft / 0 m 56.80436˚ -132.93116˚ - 0 nm - -
+56.83_-132.81 LATLON - 100 ft / 30 m 56.82818˚ -132.80631˚ 4 nm 4 nm 71° / 71° -
+56.68_-132.65 LATLON - 100 ft / 30 m 56.67724˚ -132.65037˚ 10 nm 14 nm 150° / 151° -
+56.53_-132.49 LATLON - 100 ft / 30 m 56.52631˚ -132.49443˚ 10 nm 25 nm 150° / 150° -
O PAWG APT - 0 ft / 0 m 56.48860˚ -132.38250˚ 4 nm 29 nm 121° / 121° -

Altitude Profile

Advertisement - Login to hide

PAPG

Details ICAO PAPG (PSG)
Name PETERSBURG JAMES A JOHNSON
Region USA (Alaska)
Timezone America/Juneau (UTC-9.0)
Stats Elevation 105 ft / 32 m (AMSL)
Location 56.801651° -132.945289°
Runways 1
Magnetic Variation 18.867° E

METAR

PAPG 140556Z 27006KT 7SM RA FEW013 OVC025 08/07 A3014 RMK AO2 SLP212 P0028 60081 T00780072 10089 20078 $

Decode

TAF

PAPG 140531Z 1406/1506 VRB05KT 6SM -RA FEW015 OVC025 WS020/14040KT FM140900 11010G20KT 4SM RA BR SCT010 OVC020 WS020/15040KT FM141500 11010KT 3SM RA BR OVC010 WS020/15035KT FM150000 17005KT 5SM -SHRA BKN015 OVC025 AMD LTD TO CLD VIS AND WIND 1406/1415

Decode

Departure Runways

ID Width Length Bearing (true) Bearing (mag) Surface Threshold Offset Overrun Length
04 150 ft / 46 m 5,982 ft / 1,823 m 70.70° 51.83° Asphalt 0 ft / 0 m 0 ft / 0 m
22 150 ft / 46 m 5,982 ft / 1,823 m 250.73° 231.86° Asphalt 0 ft / 0 m 0 ft / 0 m

PAWG

Details ICAO PAWG (WRG)
Name WRANGELL
Region USA (Alaska)
Timezone America/Juneau (UTC-9.0)
Stats Elevation 44 ft / 13 m (AMSL)
Location 56.484324° -132.369832°
Runways 1
Magnetic Variation 18.809° E

METAR

PAWG 140555Z 08008KT 10SM -RA BKN030 OVC040 08/07 A3018

Decode

TAF

PAWG 140531Z 1406/1506 08008KT 6SM -RA BR OVC030 WS020/15040KT FM141100 11015G25KT 4SM RA BR OVC025 WS020/15035KT FM142100 14010KT 4SM RA BR OVC015 FM150300 17008KT 5SM -RA BR SCT015 OVC025 AMD LTD TO CLD VIS AND WIND 1406/1415

Decode

Destination Runways

ID Width Length Bearing (true) Bearing (mag) Surface Threshold Offset Overrun Length
10 150 ft / 46 m 5,983 ft / 1,824 m 121.43° 102.62° Asphalt 0 ft / 0 m 0 ft / 0 m
28 150 ft / 46 m 5,983 ft / 1,824 m 301.45° 282.64° Asphalt 0 ft / 0 m 0 ft / 0 m

Approach Navaids

Runway Type Ident Frequency Range Bearing (true) Bearing (mag) Slope Elevation
10 Localiser IRGL 108.50 MHz 18 nm / 33 km 112.18° 93.37° - 40 ft / 12 m (AMSL)
10 DME IRGL 108.50 MHz 18 nm / 33 km - - - 58 ft / 18 m (AMSL)

Popular Alternatives